sensor_id;sensor_type;location;lat;lon;timestamp;temperature;humidity
8832;DHT22;4452;50.756;4.472;2023-10-08T00:00:26;16.10;99.90
8832;DHT22;4452;50.756;4.472;2023-10-08T00:03:24;16.00;99.90
8832;DHT22;4452;50.756;4.472;2023-10-08T00:05:55;16.00;99.90
8832;DHT22;4452;50.756;4.472;2023-10-08T00:08:20;15.90;99.90
8832;DHT22;4452;50.756;4.472;2023-10-08T00:10:47;16.00;99.90
8832;DHT22;4452;50.756;4.472;2023-10-08T00:13:14;16.00;99.90
8832;DHT22;4452;50.756;4.472;2023-10-08T00:15:44;16.00;99.90
8832;DHT22;4452;50.756;4.472;2023-10-08T00:18:22;16.00;99.90
8832;DHT22;4452;50.756;4.472;2023-10-08T00:20:49;15.90;99.90
8832;DHT22;4452;50.756;4.472;2023-10-08T00:23:22;15.90;99.90
8832;DHT22;4452;50.756;4.472;2023-10-08T00:25:54;15.90;99.90
8832;DHT22;4452;50.756;4.472;2023-10-08T00:28:21;15.90;99.90
8832;DHT22;4452;50.756;4.472;2023-10-08T00:30:46;15.80;99.90
8832;DHT22;4452;50.756;4.472;2023-10-08T00:33:13;15.80;99.90
8832;DHT22;4452;50.756;4.472;2023-10-08T00:35:41;15.80;99.90
8832;DHT22;4452;50.756;4.472;2023-10-08T00:38:10;15.80;99.90
8832;DHT22;4452;50.756;4.472;2023-10-08T00:40:47;15.80;99.90
8832;DHT22;4452;50.756;4.472;2023-10-08T00:43:31;15.70;99.90
8832;DHT22;4452;50.756;4.472;2023-10-08T00:45:58;15.60;99.90
8832;DHT22;4452;50.756;4.472;2023-10-08T00:48:25;15.60;99.90
8832;DHT22;4452;50.756;4.472;2023-10-08T00:50:56;15.60;99.90
8832;DHT22;4452;50.756;4.472;2023-10-08T00:53:35;15.60;99.90
8832;DHT22;4452;50.756;4.472;2023-10-08T00:56:05;15.50;99.90
8832;DHT22;4452;50.756;4.472;2023-10-08T00:58:37;15.50;99.90
8832;DHT22;4452;50.756;4.472;2023-10-08T01:01:04;15.50;99.90
8832;DHT22;4452;50.756;4.472;2023-10-08T01:03:36;15.40;99.90
8832;DHT22;4452;50.756;4.472;2023-10-08T01:06:04;15.40;99.90
8832;DHT22;4452;50.756;4.472;2023-10-08T01:08:35;15.20;99.90
8832;DHT22;4452;50.756;4.472;2023-10-08T01:13:43;15.20;99.90
8832;DHT22;4452;50.756;4.472;2023-10-08T01:16:12;15.20;99.90
8832;DHT22;4452;50.756;4.472;2023-10-08T01:18:37;15.20;99.90
8832;DHT22;4452;50.756;4.472;2023-10-08T01:21:08;15.20;99.90
8832;DHT22;4452;50.756;4.472;2023-10-08T01:23:36;15.20;99.90
8832;DHT22;4452;50.756;4.472;2023-10-08T01:26:05;15.30;99.90
8832;DHT22;4452;50.756;4.472;2023-10-08T01:28:37;15.20;99.90
8832;DHT22;4452;50.756;4.472;2023-10-08T01:31:03;15.20;99.90
8832;DHT22;4452;50.756;4.472;2023-10-08T01:33:30;15.10;99.90
8832;DHT22;4452;50.756;4.472;2023-10-08T01:36:04;15.00;99.90
8832;DHT22;4452;50.756;4.472;2023-10-08T01:38:33;15.00;99.90
8832;DHT22;4452;50.756;4.472;2023-10-08T01:40:59;15.00;99.90
8832;DHT22;4452;50.756;4.472;2023-10-08T01:43:35;15.00;99.90
8832;DHT22;4452;50.756;4.472;2023-10-08T01:46:02;15.00;99.90
8832;DHT22;4452;50.756;4.472;2023-10-08T01:48:28;15.00;99.90
8832;DHT22;4452;50.756;4.472;2023-10-08T01:51:02;15.10;99.90
8832;DHT22;4452;50.756;4.472;2023-10-08T01:53:30;15.00;99.90
8832;DHT22;4452;50.756;4.472;2023-10-08T01:55:57;15.00;99.90
8832;DHT22;4452;50.756;4.472;2023-10-08T01:58:23;15.00;99.90
8832;DHT22;4452;50.756;4.472;2023-10-08T02:00:49;15.10;99.90
8832;DHT22;4452;50.756;4.472;2023-10-08T02:03:17;15.00;99.90
8832;DHT22;4452;50.756;4.472;2023-10-08T02:05:47;14.90;99.90
8832;DHT22;4452;50.756;4.472;2023-10-08T02:08:14;15.00;99.90
8832;DHT22;4452;50.756;4.472;2023-10-08T02:10:43;15.00;99.90
8832;DHT22;4452;50.756;4.472;2023-10-08T02:13:10;14.90;99.90
8832;DHT22;4452;50.756;4.472;2023-10-08T02:15:40;14.90;99.90
8832;DHT22;4452;50.756;4.472;2023-10-08T02:18:06;14.80;99.90
8832;DHT22;4452;50.756;4.472;2023-10-08T02:20:32;14.80;99.90
8832;DHT22;4452;50.756;4.472;2023-10-08T02:22:58;14.70;99.90
8832;DHT22;4452;50.756;4.472;2023-10-08T02:25:25;14.60;99.90
8832;DHT22;4452;50.756;4.472;2023-10-08T02:27:51;14.40;99.90
8832;DHT22;4452;50.756;4.472;2023-10-08T02:30:17;14.40;99.90
8832;DHT22;4452;50.756;4.472;2023-10-08T02:32:43;14.30;99.90
8832;DHT22;4452;50.756;4.472;2023-10-08T02:35:10;14.20;99.90
8832;DHT22;4452;50.756;4.472;2023-10-08T02:37:40;14.10;99.90
8832;DHT22;4452;50.756;4.472;2023-10-08T02:40:07;14.00;99.90
8832;DHT22;4452;50.756;4.472;2023-10-08T02:42:42;14.00;99.90
8832;DHT22;4452;50.756;4.472;2023-10-08T02:45:11;13.80;99.90
8832;DHT22;4452;50.756;4.472;2023-10-08T02:47:43;13.80;99.90
8832;DHT22;4452;50.756;4.472;2023-10-08T02:50:12;13.70;99.90
8832;DHT22;4452;50.756;4.472;2023-10-08T02:52:43;13.70;99.90
8832;DHT22;4452;50.756;4.472;2023-10-08T02:55:10;13.70;99.90
8832;DHT22;4452;50.756;4.472;2023-10-08T02:57:50;13.80;99.90
8832;DHT22;4452;50.756;4.472;2023-10-08T03:00:17;13.90;99.90
8832;DHT22;4452;50.756;4.472;2023-10-08T03:02:45;14.00;99.90
8832;DHT22;4452;50.756;4.472;2023-10-08T03:05:12;14.00;99.90
8832;DHT22;4452;50.756;4.472;2023-10-08T03:07:41;14.10;99.90
8832;DHT22;4452;50.756;4.472;2023-10-08T03:10:07;14.20;99.90
8832;DHT22;4452;50.756;4.472;2023-10-08T03:12:43;14.20;99.90
8832;DHT22;4452;50.756;4.472;2023-10-08T03:15:13;14.30;99.90
8832;DHT22;4452;50.756;4.472;2023-10-08T03:17:43;14.30;99.90
8832;DHT22;4452;50.756;4.472;2023-10-08T03:20:16;14.30;99.90
8832;DHT22;4452;50.756;4.472;2023-10-08T03:23:00;14.20;99.90
8832;DHT22;4452;50.756;4.472;2023-10-08T03:25:29;14.10;99.90
8832;DHT22;4452;50.756;4.472;2023-10-08T03:27:56;14.00;99.90
8832;DHT22;4452;50.756;4.472;2023-10-08T03:30:24;13.90;99.90
8832;DHT22;4452;50.756;4.472;2023-10-08T03:32:52;13.80;99.90
8832;DHT22;4452;50.756;4.472;2023-10-08T03:35:21;13.70;99.90
8832;DHT22;4452;50.756;4.472;2023-10-08T03:37:53;13.70;99.90
8832;DHT22;4452;50.756;4.472;2023-10-08T03:40:20;13.70;99.90
8832;DHT22;4452;50.756;4.472;2023-10-08T03:43:08;13.60;99.90
8832;DHT22;4452;50.756;4.472;2023-10-08T03:45:45;13.60;99.90
8832;DHT22;4452;50.756;4.472;2023-10-08T03:48:19;13.60;99.90
8832;DHT22;4452;50.756;4.472;2023-10-08T03:50:48;13.50;99.90
8832;DHT22;4452;50.756;4.472;2023-10-08T03:53:22;13.50;99.90
8832;DHT22;4452;50.756;4.472;2023-10-08T03:55:48;13.40;99.90
8832;DHT22;4452;50.756;4.472;2023-10-08T03:58:17;13.20;99.90
8832;DHT22;4452;50.756;4.472;2023-10-08T04:00:54;13.10;99.90
8832;DHT22;4452;50.756;4.472;2023-10-08T04:03:37;13.20;99.90
8832;DHT22;4452;50.756;4.472;2023-10-08T04:06:29;13.20;99.90
8832;DHT22;4452;50.756;4.472;2023-10-08T04:08:59;13.20;99.90
8832;DHT22;4452;50.756;4.472;2023-10-08T04:11:34;13.20;99.90
8832;DHT22;4452;50.756;4.472;2023-10-08T04:14:15;13.20;99.90
8832;DHT22;4452;50.756;4.472;2023-10-08T04:16:44;13.30;99.90
8832;DHT22;4452;50.756;4.472;2023-10-08T04:19:10;13.30;99.90
8832;DHT22;4452;50.756;4.472;2023-10-08T04:21:37;13.20;99.90
8832;DHT22;4452;50.756;4.472;2023-10-08T04:24:03;13.20;99.90
8832;DHT22;4452;50.756;4.472;2023-10-08T04:26:30;13.20;99.90
8832;DHT22;4452;50.756;4.472;2023-10-08T04:28:59;13.20;99.90
8832;DHT22;4452;50.756;4.472;2023-10-08T04:31:29;13.30;99.90
8832;DHT22;4452;50.756;4.472;2023-10-08T04:34:12;13.40;99.90
8832;DHT22;4452;50.756;4.472;2023-10-08T04:36:45;13.40;99.90
8832;DHT22;4452;50.756;4.472;2023-10-08T04:39:14;13.40;99.90
8832;DHT22;4452;50.756;4.472;2023-10-08T04:41:47;13.50;99.90
8832;DHT22;4452;50.756;4.472;2023-10-08T04:44:16;13.60;99.90
8832;DHT22;4452;50.756;4.472;2023-10-08T04:46:42;13.60;99.90
8832;DHT22;4452;50.756;4.472;2023-10-08T04:49:11;13.60;99.90
8832;DHT22;4452;50.756;4.472;2023-10-08T04:51:58;13.60;99.90
8832;DHT22;4452;50.756;4.472;2023-10-08T04:54:28;13.70;99.90
8832;DHT22;4452;50.756;4.472;2023-10-08T04:57:01;13.60;99.90
8832;DHT22;4452;50.756;4.472;2023-10-08T04:59:30;13.60;99.90
8832;DHT22;4452;50.756;4.472;2023-10-08T05:02:00;13.60;99.90
8832;DHT22;4452;50.756;4.472;2023-10-08T05:04:45;13.70;99.90
8832;DHT22;4452;50.756;4.472;2023-10-08T05:07:23;13.60;99.90
8832;DHT22;4452;50.756;4.472;2023-10-08T05:09:51;13.70;99.90
8832;DHT22;4452;50.756;4.472;2023-10-08T05:12:36;13.70;99.90
8832;DHT22;4452;50.756;4.472;2023-10-08T05:15:16;13.70;99.90
8832;DHT22;4452;50.756;4.472;2023-10-08T05:17:43;13.60;99.90
8832;DHT22;4452;50.756;4.472;2023-10-08T05:20:19;13.50;99.90
8832;DHT22;4452;50.756;4.472;2023-10-08T05:23:21;13.40;99.90
8832;DHT22;4452;50.756;4.472;2023-10-08T05:25:51;13.30;99.90
8832;DHT22;4452;50.756;4.472;2023-10-08T05:28:26;13.20;99.90
8832;DHT22;4452;50.756;4.472;2023-10-08T05:30:52;13.20;99.90
8832;DHT22;4452;50.756;4.472;2023-10-08T05:33:42;13.10;99.90
8832;DHT22;4452;50.756;4.472;2023-10-08T05:36:27;13.10;99.90
8832;DHT22;4452;50.756;4.472;2023-10-08T05:39:16;13.10;99.90
8832;DHT22;4452;50.756;4.472;2023-10-08T05:41:55;13.00;99.90
8832;DHT22;4452;50.756;4.472;2023-10-08T05:44:42;12.90;99.90
8832;DHT22;4452;50.756;4.472;2023-10-08T05:47:26;12.80;99.90
8832;DHT22;4452;50.756;4.472;2023-10-08T05:50:04;12.70;99.90
8832;DHT22;4452;50.756;4.472;2023-10-08T05:52:43;12.60;99.90
8832;DHT22;4452;50.756;4.472;2023-10-08T05:55:30;12.60;99.90
8832;DHT22;4452;50.756;4.472;2023-10-08T06:00:46;12.60;99.90
8832;DHT22;4452;50.756;4.472;2023-10-08T06:03:19;12.60;99.90
8832;DHT22;4452;50.756;4.472;2023-10-08T06:06:08;12.60;99.90
8832;DHT22;4452;50.756;4.472;2023-10-08T06:08:40;12.60;99.90
8832;DHT22;4452;50.756;4.472;2023-10-08T06:11:18;12.60;99.90
8832;DHT22;4452;50.756;4.472;2023-10-08T06:14:06;12.50;99.90
8832;DHT22;4452;50.756;4.472;2023-10-08T06:16:45;12.50;99.90
8832;DHT22;4452;50.756;4.472;2023-10-08T06:19:13;12.60;99.90
8832;DHT22;4452;50.756;4.472;2023-10-08T06:21:41;12.70;99.90
8832;DHT22;4452;50.756;4.472;2023-10-08T06:24:09;12.70;99.90
8832;DHT22;4452;50.756;4.472;2023-10-08T06:26:39;12.80;99.90
8832;DHT22;4452;50.756;4.472;2023-10-08T06:29:14;12.90;99.90
8832;DHT22;4452;50.756;4.472;2023-10-08T06:31:59;13.00;99.90
8832;DHT22;4452;50.756;4.472;2023-10-08T06:34:31;13.10;99.90
8832;DHT22;4452;50.756;4.472;2023-10-08T06:36:59;13.20;99.90
8832;DHT22;4452;50.756;4.472;2023-10-08T06:39:25;13.20;99.90
8832;DHT22;4452;50.756;4.472;2023-10-08T06:41:54;13.20;99.90
8832;DHT22;4452;50.756;4.472;2023-10-08T06:44:22;13.30;99.90
8832;DHT22;4452;50.756;4.472;2023-10-08T06:46:48;13.40;99.90
8832;DHT22;4452;50.756;4.472;2023-10-08T06:49:14;13.70;99.90
8832;DHT22;4452;50.756;4.472;2023-10-08T06:51:41;13.80;99.90
8832;DHT22;4452;50.756;4.472;2023-10-08T06:54:09;14.00;99.90
8832;DHT22;4452;50.756;4.472;2023-10-08T06:56:42;14.00;99.90
8832;DHT22;4452;50.756;4.472;2023-10-08T06:59:15;14.00;99.90
8832;DHT22;4452;50.756;4.472;2023-10-08T07:01:44;14.10;99.90
8832;DHT22;4452;50.756;4.472;2023-10-08T07:04:17;14.20;99.90
8832;DHT22;4452;50.756;4.472;2023-10-08T07:06:44;14.10;99.90
8832;DHT22;4452;50.756;4.472;2023-10-08T07:09:14;14.20;99.90
8832;DHT22;4452;50.756;4.472;2023-10-08T07:11:57;14.30;99.90
8832;DHT22;4452;50.756;4.472;2023-10-08T07:14:24;14.50;99.90
8832;DHT22;4452;50.756;4.472;2023-10-08T07:16:53;14.40;99.90
8832;DHT22;4452;50.756;4.472;2023-10-08T07:19:21;14.30;99.90
8832;DHT22;4452;50.756;4.472;2023-10-08T07:21:49;14.40;99.90
8832;DHT22;4452;50.756;4.472;2023-10-08T07:24:19;14.30;99.90
8832;DHT22;4452;50.756;4.472;2023-10-08T07:26:48;14.50;99.90
8832;DHT22;4452;50.756;4.472;2023-10-08T07:29:16;14.70;99.90
8832;DHT22;4452;50.756;4.472;2023-10-08T07:31:45;14.80;99.90
8832;DHT22;4452;50.756;4.472;2023-10-08T07:34:18;14.80;99.90
8832;DHT22;4452;50.756;4.472;2023-10-08T07:36:52;14.90;99.90
8832;DHT22;4452;50.756;4.472;2023-10-08T07:39:20;15.20;99.90
8832;DHT22;4452;50.756;4.472;2023-10-08T07:42:04;15.30;99.90
8832;DHT22;4452;50.756;4.472;2023-10-08T07:44:33;15.40;99.90
8832;DHT22;4452;50.756;4.472;2023-10-08T07:47:05;15.50;99.90
8832;DHT22;4452;50.756;4.472;2023-10-08T07:49:33;15.70;99.90
8832;DHT22;4452;50.756;4.472;2023-10-08T07:52:01;15.80;99.90
8832;DHT22;4452;50.756;4.472;2023-10-08T07:54:29;16.00;99.90
8832;DHT22;4452;50.756;4.472;2023-10-08T07:57:00;16.10;99.90
8832;DHT22;4452;50.756;4.472;2023-10-08T07:59:35;16.20;99.90
8832;DHT22;4452;50.756;4.472;2023-10-08T08:02:12;16.20;99.90
8832;DHT22;4452;50.756;4.472;2023-10-08T08:04:42;16.20;99.90
8832;DHT22;4452;50.756;4.472;2023-10-08T08:07:12;16.20;99.90
8832;DHT22;4452;50.756;4.472;2023-10-08T08:09:45;16.10;99.90
8832;DHT22;4452;50.756;4.472;2023-10-08T08:12:18;16.30;99.90
8832;DHT22;4452;50.756;4.472;2023-10-08T08:14:45;16.30;99.90
8832;DHT22;4452;50.756;4.472;2023-10-08T08:17:10;16.60;99.90
8832;DHT22;4452;50.756;4.472;2023-10-08T08:19:49;16.80;99.90
8832;DHT22;4452;50.756;4.472;2023-10-08T08:22:17;16.70;99.90
8832;DHT22;4452;50.756;4.472;2023-10-08T08:24:56;16.80;99.90
8832;DHT22;4452;50.756;4.472;2023-10-08T08:27:32;16.90;99.90
8832;DHT22;4452;50.756;4.472;2023-10-08T08:29:58;16.90;99.90
8832;DHT22;4452;50.756;4.472;2023-10-08T08:32:39;17.00;99.90
8832;DHT22;4452;50.756;4.472;2023-10-08T08:35:08;17.20;99.90
8832;DHT22;4452;50.756;4.472;2023-10-08T08:37:37;17.40;99.90
8832;DHT22;4452;50.756;4.472;2023-10-08T08:40:07;17.40;99.90
8832;DHT22;4452;50.756;4.472;2023-10-08T08:42:44;17.50;99.90
8832;DHT22;4452;50.756;4.472;2023-10-08T08:45:13;17.90;99.90
8832;DHT22;4452;50.756;4.472;2023-10-08T08:47:40;18.00;99.90
8832;DHT22;4452;50.756;4.472;2023-10-08T08:50:10;17.70;99.90
8832;DHT22;4452;50.756;4.472;2023-10-08T08:52:39;17.80;99.90
8832;DHT22;4452;50.756;4.472;2023-10-08T08:55:09;17.70;99.90
8832;DHT22;4452;50.756;4.472;2023-10-08T08:57:42;17.80;99.90
8832;DHT22;4452;50.756;4.472;2023-10-08T09:00:11;17.70;99.90
8832;DHT22;4452;50.756;4.472;2023-10-08T09:02:38;17.90;99.90
8832;DHT22;4452;50.756;4.472;2023-10-08T09:05:04;17.80;99.90
8832;DHT22;4452;50.756;4.472;2023-10-08T09:08:04;17.90;99.90
8832;DHT22;4452;50.756;4.472;2023-10-08T09:10:36;17.70;99.90
8832;DHT22;4452;50.756;4.472;2023-10-08T09:13:04;17.80;99.90
8832;DHT22;4452;50.756;4.472;2023-10-08T09:15:30;18.00;99.90
8832;DHT22;4452;50.756;4.472;2023-10-08T09:17:58;18.10;99.90
8832;DHT22;4452;50.756;4.472;2023-10-08T09:20:28;18.20;99.90
8832;DHT22;4452;50.756;4.472;2023-10-08T09:23:12;18.40;99.90
8832;DHT22;4452;50.756;4.472;2023-10-08T09:25:43;18.60;99.90
8832;DHT22;4452;50.756;4.472;2023-10-08T09:28:10;18.50;99.90
8832;DHT22;4452;50.756;4.472;2023-10-08T09:30:39;18.60;99.90
8832;DHT22;4452;50.756;4.472;2023-10-08T09:33:10;18.70;99.90
8832;DHT22;4452;50.756;4.472;2023-10-08T09:35:37;18.70;99.90
8832;DHT22;4452;50.756;4.472;2023-10-08T09:38:05;19.10;99.90
8832;DHT22;4452;50.756;4.472;2023-10-08T09:40:39;19.30;99.90
8832;DHT22;4452;50.756;4.472;2023-10-08T09:43:09;19.10;99.90
8832;DHT22;4452;50.756;4.472;2023-10-08T09:45:38;19.10;99.90
8832;DHT22;4452;50.756;4.472;2023-10-08T09:48:06;19.10;99.90
8832;DHT22;4452;50.756;4.472;2023-10-08T09:50:40;19.10;99.90
8832;DHT22;4452;50.756;4.472;2023-10-08T09:53:11;18.90;99.90
8832;DHT22;4452;50.756;4.472;2023-10-08T09:58:21;19.40;99.90
8832;DHT22;4452;50.756;4.472;2023-10-08T10:00:49;19.10;99.90
8832;DHT22;4452;50.756;4.472;2023-10-08T10:03:16;19.30;99.90
8832;DHT22;4452;50.756;4.472;2023-10-08T10:05:44;19.40;99.90
8832;DHT22;4452;50.756;4.472;2023-10-08T10:08:10;19.80;99.90
8832;DHT22;4452;50.756;4.472;2023-10-08T10:10:37;19.90;99.90
8832;DHT22;4452;50.756;4.472;2023-10-08T10:13:05;19.90;99.90
8832;DHT22;4452;50.756;4.472;2023-10-08T10:15:34;19.90;99.90
8832;DHT22;4452;50.756;4.472;2023-10-08T10:18:16;20.10;99.90
8832;DHT22;4452;50.756;4.472;2023-10-08T10:20:57;20.00;99.90
8832;DHT22;4452;50.756;4.472;2023-10-08T10:26:22;20.30;99.90
8832;DHT22;4452;50.756;4.472;2023-10-08T10:31:33;19.90;99.90
8832;DHT22;4452;50.756;4.472;2023-10-08T10:34:08;20.10;99.90
8832;DHT22;4452;50.756;4.472;2023-10-08T10:36:35;20.00;99.90
8832;DHT22;4452;50.756;4.472;2023-10-08T10:39:01;20.10;99.90
8832;DHT22;4452;50.756;4.472;2023-10-08T10:41:43;20.00;99.90
8832;DHT22;4452;50.756;4.472;2023-10-08T10:44:10;20.20;99.90
8832;DHT22;4452;50.756;4.472;2023-10-08T10:46:36;20.20;99.90
8832;DHT22;4452;50.756;4.472;2023-10-08T10:49:07;20.20;99.90
8832;DHT22;4452;50.756;4.472;2023-10-08T10:51:55;20.40;99.90
8832;DHT22;4452;50.756;4.472;2023-10-08T10:54:24;20.70;99.90
8832;DHT22;4452;50.756;4.472;2023-10-08T10:56:51;20.80;99.90
8832;DHT22;4452;50.756;4.472;2023-10-08T10:59:31;20.70;99.90
8832;DHT22;4452;50.756;4.472;2023-10-08T11:02:06;20.60;99.90
8832;DHT22;4452;50.756;4.472;2023-10-08T11:04:47;20.70;99.90
8832;DHT22;4452;50.756;4.472;2023-10-08T11:07:21;20.70;99.90
8832;DHT22;4452;50.756;4.472;2023-10-08T11:09:47;20.60;99.90
8832;DHT22;4452;50.756;4.472;2023-10-08T11:12:14;20.70;99.90
8832;DHT22;4452;50.756;4.472;2023-10-08T11:14:46;20.70;99.90
8832;DHT22;4452;50.756;4.472;2023-10-08T11:17:17;21.00;99.90
8832;DHT22;4452;50.756;4.472;2023-10-08T11:19:43;21.00;99.90
8832;DHT22;4452;50.756;4.472;2023-10-08T11:22:12;20.90;99.90
8832;DHT22;4452;50.756;4.472;2023-10-08T11:24:42;21.00;99.90
8832;DHT22;4452;50.756;4.472;2023-10-08T11:27:10;21.50;99.90
8832;DHT22;4452;50.756;4.472;2023-10-08T11:29:49;21.40;99.90
8832;DHT22;4452;50.756;4.472;2023-10-08T11:32:22;21.20;99.90
8832;DHT22;4452;50.756;4.472;2023-10-08T11:35:03;21.30;99.90
8832;DHT22;4452;50.756;4.472;2023-10-08T11:37:45;21.30;99.90
8832;DHT22;4452;50.756;4.472;2023-10-08T11:40:24;21.10;99.90
8832;DHT22;4452;50.756;4.472;2023-10-08T11:42:55;21.40;99.90
8832;DHT22;4452;50.756;4.472;2023-10-08T11:45:23;21.60;99.90
8832;DHT22;4452;50.756;4.472;2023-10-08T11:48:04;21.50;99.90
8832;DHT22;4452;50.756;4.472;2023-10-08T11:50:40;21.40;99.90
8832;DHT22;4452;50.756;4.472;2023-10-08T11:53:06;21.30;99.90
8832;DHT22;4452;50.756;4.472;2023-10-08T11:55:33;21.40;99.90
8832;DHT22;4452;50.756;4.472;2023-10-08T11:58:05;21.70;99.90
8832;DHT22;4452;50.756;4.472;2023-10-08T12:00:38;21.90;99.90
8832;DHT22;4452;50.756;4.472;2023-10-08T12:03:13;22.00;99.90
8832;DHT22;4452;50.756;4.472;2023-10-08T12:05:47;21.90;99.90
8832;DHT22;4452;50.756;4.472;2023-10-08T12:08:17;21.80;99.90
8832;DHT22;4452;50.756;4.472;2023-10-08T12:10:44;21.90;99.90
8832;DHT22;4452;50.756;4.472;2023-10-08T12:13:11;21.90;99.90
8832;DHT22;4452;50.756;4.472;2023-10-08T12:15:38;21.80;99.90
8832;DHT22;4452;50.756;4.472;2023-10-08T12:18:10;22.00;99.90
8832;DHT22;4452;50.756;4.472;2023-10-08T12:20:51;22.50;99.90
8832;DHT22;4452;50.756;4.472;2023-10-08T12:23:18;22.80;99.90
8832;DHT22;4452;50.756;4.472;2023-10-08T12:25:55;22.60;99.90
8832;DHT22;4452;50.756;4.472;2023-10-08T12:28:25;22.60;99.90
8832;DHT22;4452;50.756;4.472;2023-10-08T12:30:53;22.80;99.90
8832;DHT22;4452;50.756;4.472;2023-10-08T12:33:20;22.80;99.90
8832;DHT22;4452;50.756;4.472;2023-10-08T12:35:48;22.70;99.90
8832;DHT22;4452;50.756;4.472;2023-10-08T12:38:14;22.70;99.90
8832;DHT22;4452;50.756;4.472;2023-10-08T12:40:41;22.90;99.90
8832;DHT22;4452;50.756;4.472;2023-10-08T12:43:23;23.20;99.90
8832;DHT22;4452;50.756;4.472;2023-10-08T12:45:53;22.90;99.90
8832;DHT22;4452;50.756;4.472;2023-10-08T12:48:23;23.00;99.90
8832;DHT22;4452;50.756;4.472;2023-10-08T12:50:56;22.80;99.90
8832;DHT22;4452;50.756;4.472;2023-10-08T12:53:24;23.00;99.90
8832;DHT22;4452;50.756;4.472;2023-10-08T12:55:56;22.80;99.90
8832;DHT22;4452;50.756;4.472;2023-10-08T12:58:24;22.50;99.90
8832;DHT22;4452;50.756;4.472;2023-10-08T13:00:56;22.60;99.90
8832;DHT22;4452;50.756;4.472;2023-10-08T13:03:29;23.00;99.90
8832;DHT22;4452;50.756;4.472;2023-10-08T13:05:59;23.20;99.90
8832;DHT22;4452;50.756;4.472;2023-10-08T13:08:31;23.50;99.90
8832;DHT22;4452;50.756;4.472;2023-10-08T13:10:58;23.50;99.90
8832;DHT22;4452;50.756;4.472;2023-10-08T13:13:35;23.90;99.90
8832;DHT22;4452;50.756;4.472;2023-10-08T13:16:03;23.80;99.90
8832;DHT22;4452;50.756;4.472;2023-10-08T13:18:33;24.30;99.90
8832;DHT22;4452;50.756;4.472;2023-10-08T13:20:59;24.50;99.90
8832;DHT22;4452;50.756;4.472;2023-10-08T13:23:26;24.20;99.90
8832;DHT22;4452;50.756;4.472;2023-10-08T13:25:53;24.00;99.90
8832;DHT22;4452;50.756;4.472;2023-10-08T13:28:24;23.90;99.90
8832;DHT22;4452;50.756;4.472;2023-10-08T13:30:53;24.10;99.90
8832;DHT22;4452;50.756;4.472;2023-10-08T13:33:20;24.80;99.90
8832;DHT22;4452;50.756;4.472;2023-10-08T13:35:51;24.40;99.90
8832;DHT22;4452;50.756;4.472;2023-10-08T13:38:20;24.50;99.90
8832;DHT22;4452;50.756;4.472;2023-10-08T13:40:49;24.20;99.90
8832;DHT22;4452;50.756;4.472;2023-10-08T13:43:34;24.10;99.90
8832;DHT22;4452;50.756;4.472;2023-10-08T13:46:04;24.10;99.90
8832;DHT22;4452;50.756;4.472;2023-10-08T13:48:33;24.10;99.90
8832;DHT22;4452;50.756;4.472;2023-10-08T13:51:03;24.20;99.90
8832;DHT22;4452;50.756;4.472;2023-10-08T13:53:32;24.80;99.90
8832;DHT22;4452;50.756;4.472;2023-10-08T13:56:02;25.30;99.90
8832;DHT22;4452;50.756;4.472;2023-10-08T13:58:33;25.30;99.90
8832;DHT22;4452;50.756;4.472;2023-10-08T14:01:05;25.60;99.90
8832;DHT22;4452;50.756;4.472;2023-10-08T14:03:46;25.40;99.90
8832;DHT22;4452;50.756;4.472;2023-10-08T14:06:13;26.10;99.90
8832;DHT22;4452;50.756;4.472;2023-10-08T14:08:39;26.20;99.90
8832;DHT22;4452;50.756;4.472;2023-10-08T14:11:05;26.20;99.90
8832;DHT22;4452;50.756;4.472;2023-10-08T14:13:31;26.10;99.90
8832;DHT22;4452;50.756;4.472;2023-10-08T14:16:01;25.60;99.90
8832;DHT22;4452;50.756;4.472;2023-10-08T14:18:33;25.70;99.90
8832;DHT22;4452;50.756;4.472;2023-10-08T14:21:09;25.80;99.90
8832;DHT22;4452;50.756;4.472;2023-10-08T14:23:39;26.10;99.90
8832;DHT22;4452;50.756;4.472;2023-10-08T14:26:09;25.80;99.90
8832;DHT22;4452;50.756;4.472;2023-10-08T14:28:36;25.50;99.90
8832;DHT22;4452;50.756;4.472;2023-10-08T14:31:19;25.00;99.90
8832;DHT22;4452;50.756;4.472;2023-10-08T14:33:49;24.80;99.90
8832;DHT22;4452;50.756;4.472;2023-10-08T14:36:24;24.90;99.90
8832;DHT22;4452;50.756;4.472;2023-10-08T14:39:09;24.80;99.90
8832;DHT22;4452;50.756;4.472;2023-10-08T14:41:54;24.80;99.90
8832;DHT22;4452;50.756;4.472;2023-10-08T14:44:38;24.70;99.90
8832;DHT22;4452;50.756;4.472;2023-10-08T14:47:04;24.80;99.90
8832;DHT22;4452;50.756;4.472;2023-10-08T14:49:31;25.00;99.90
8832;DHT22;4452;50.756;4.472;2023-10-08T14:51:58;25.40;99.90
8832;DHT22;4452;50.756;4.472;2023-10-08T14:54:24;25.70;99.90
8832;DHT22;4452;50.756;4.472;2023-10-08T14:56:50;25.50;99.90
8832;DHT22;4452;50.756;4.472;2023-10-08T14:59:16;25.10;99.90
8832;DHT22;4452;50.756;4.472;2023-10-08T15:01:44;25.10;99.90
8832;DHT22;4452;50.756;4.472;2023-10-08T15:04:10;25.80;99.90
8832;DHT22;4452;50.756;4.472;2023-10-08T15:06:37;26.20;99.90
8832;DHT22;4452;50.756;4.472;2023-10-08T15:09:07;25.80;99.90
8832;DHT22;4452;50.756;4.472;2023-10-08T15:11:35;26.00;99.90
8832;DHT22;4452;50.756;4.472;2023-10-08T15:14:05;26.10;99.90
8832;DHT22;4452;50.756;4.472;2023-10-08T15:16:38;26.20;99.90
8832;DHT22;4452;50.756;4.472;2023-10-08T15:19:04;25.80;99.90
8832;DHT22;4452;50.756;4.472;2023-10-08T15:21:31;25.60;99.90
8832;DHT22;4452;50.756;4.472;2023-10-08T15:24:00;25.70;99.90
8832;DHT22;4452;50.756;4.472;2023-10-08T15:26:36;25.30;99.90
8832;DHT22;4452;50.756;4.472;2023-10-08T15:29:01;25.40;99.90
8832;DHT22;4452;50.756;4.472;2023-10-08T15:31:28;25.70;99.90
8832;DHT22;4452;50.756;4.472;2023-10-08T15:33:54;24.90;99.90
8832;DHT22;4452;50.756;4.472;2023-10-08T15:36:20;24.50;99.90
8832;DHT22;4452;50.756;4.472;2023-10-08T15:38:45;24.70;99.90
8832;DHT22;4452;50.756;4.472;2023-10-08T15:41:11;24.80;99.90
8832;DHT22;4452;50.756;4.472;2023-10-08T15:43:41;24.80;99.90
8832;DHT22;4452;50.756;4.472;2023-10-08T15:46:10;24.90;99.90
8832;DHT22;4452;50.756;4.472;2023-10-08T15:48:37;24.80;99.90
8832;DHT22;4452;50.756;4.472;2023-10-08T15:51:03;25.20;99.90
8832;DHT22;4452;50.756;4.472;2023-10-08T15:53:28;25.00;99.90
8832;DHT22;4452;50.756;4.472;2023-10-08T15:55:56;24.90;99.90
8832;DHT22;4452;50.756;4.472;2023-10-08T15:58:22;24.70;99.90
8832;DHT22;4452;50.756;4.472;2023-10-08T16:00:48;24.30;99.90
8832;DHT22;4452;50.756;4.472;2023-10-08T16:03:13;24.30;99.90
8832;DHT22;4452;50.756;4.472;2023-10-08T16:05:43;24.30;99.90
8832;DHT22;4452;50.756;4.472;2023-10-08T16:08:08;24.40;99.90
8832;DHT22;4452;50.756;4.472;2023-10-08T16:10:34;23.90;99.90
8832;DHT22;4452;50.756;4.472;2023-10-08T16:13:00;23.80;99.90
8832;DHT22;4452;50.756;4.472;2023-10-08T16:15:26;24.00;99.90
8832;DHT22;4452;50.756;4.472;2023-10-08T16:17:52;23.70;99.90
8832;DHT22;4452;50.756;4.472;2023-10-08T16:20:17;23.60;99.90
8832;DHT22;4452;50.756;4.472;2023-10-08T16:22:44;24.00;99.90
8832;DHT22;4452;50.756;4.472;2023-10-08T16:25:11;23.70;99.90
8832;DHT22;4452;50.756;4.472;2023-10-08T16:27:50;23.20;99.90
8832;DHT22;4452;50.756;4.472;2023-10-08T16:30:22;23.10;99.90
8832;DHT22;4452;50.756;4.472;2023-10-08T16:32:49;22.70;99.90
8832;DHT22;4452;50.756;4.472;2023-10-08T16:35:17;22.50;99.90
8832;DHT22;4452;50.756;4.472;2023-10-08T16:37:45;22.40;99.90
8832;DHT22;4452;50.756;4.472;2023-10-08T16:40:11;22.10;99.90